createdAt,value
2022-10-17T00:01:02.520Z,60.42
2022-10-17T00:03:33.570Z,57.05
2022-10-17T00:06:13.443Z,76.95
2022-10-17T00:08:46.602Z,54.70
2022-10-17T00:11:25.456Z,52.15
2022-10-17T00:13:57.964Z,50.83
2022-10-17T00:16:38.279Z,52.08
2022-10-17T00:19:09.349Z,50.63
2022-10-17T00:21:39.703Z,51.50
2022-10-17T00:24:10.657Z,51.10
2022-10-17T00:26:41.696Z,45.80
2022-10-17T00:29:12.414Z,44.72
2022-10-17T00:31:42.487Z,43.72
2022-10-17T00:34:12.205Z,41.38
2022-10-17T00:36:42.742Z,56.22
2022-10-17T00:39:13.059Z,42.50
2022-10-17T00:41:44.121Z,38.78
2022-10-17T00:44:53.584Z,39.50
2022-10-17T00:47:25.097Z,41.60
2022-10-17T00:49:56.767Z,36.33
2022-10-17T00:52:32.190Z,42.10
2022-10-17T00:55:12.859Z,36.35
2022-10-17T00:57:45.286Z,35.38
2022-10-17T01:00:18.484Z,37.63
2022-10-17T01:02:49.509Z,34.35
2022-10-17T01:05:21.457Z,38.53
2022-10-17T01:07:55.055Z,34.00
2022-10-17T01:10:32.024Z,37.90
2022-10-17T01:13:28.899Z,31.95
2022-10-17T01:16:23.582Z,33.00
2022-10-17T01:19:14.809Z,38.33
2022-10-17T01:22:12.708Z,28.98
2022-10-17T01:25:21.169Z,36.63
2022-10-17T01:28:18.820Z,32.55
2022-10-17T01:31:09.610Z,28.52
2022-10-17T01:33:56.228Z,28.85
2022-10-17T01:36:38.737Z,32.53
2022-10-17T01:39:32.504Z,32.58
2022-10-17T01:42:16.185Z,31.15
2022-10-17T01:45:12.131Z,29.85
2022-10-17T01:47:44.669Z,37.05
2022-10-17T01:50:32.874Z,32.28
2022-10-17T01:53:10.197Z,32.30
2022-10-17T01:55:45.851Z,26.88
2022-10-17T01:58:23.878Z,27.23
2022-10-17T02:00:56.393Z,26.33
2022-10-17T02:03:28.115Z,30.70
2022-10-17T02:05:59.126Z,28.63
2022-10-17T02:08:51.489Z,28.40
2022-10-17T02:11:28.612Z,35.17
2022-10-17T02:14:25.448Z,31.15
2022-10-17T02:17:35.054Z,27.40
2022-10-17T02:20:35.429Z,26.25
2022-10-17T02:23:26.618Z,26.70
2022-10-17T02:26:22.289Z,30.80
2022-10-17T02:29:11.453Z,23.75
2022-10-17T02:32:04.033Z,26.17
2022-10-17T02:34:57.030Z,24.60
2022-10-17T02:37:31.359Z,25.65
2022-10-17T02:40:03.239Z,24.70
2022-10-17T02:42:34.908Z,26.52
2022-10-17T02:45:07.653Z,23.77
2022-10-17T02:48:02.293Z,24.23
2022-10-17T02:51:02.953Z,25.83
2022-10-17T02:53:42.115Z,26.05
2022-10-17T02:56:19.520Z,34.05
2022-10-17T02:58:57.247Z,28.08
2022-10-17T03:01:28.094Z,41.13
2022-10-17T03:04:18.256Z,26.42
2022-10-17T03:06:50.696Z,26.92
2022-10-17T03:09:21.984Z,28.65
2022-10-17T03:11:53.643Z,25.25
2022-10-17T03:14:23.856Z,26.48
2022-10-17T03:16:54.953Z,24.38
2022-10-17T03:19:25.468Z,23.60
2022-10-17T03:21:56.815Z,24.00
2022-10-17T03:24:27.066Z,22.67
2022-10-17T03:26:57.932Z,22.92
2022-10-17T03:29:28.099Z,21.33
2022-10-17T03:31:58.990Z,26.50
2022-10-17T03:34:29.865Z,26.90
2022-10-17T03:37:01.872Z,24.58
2022-10-17T03:39:33.897Z,23.30
2022-10-17T03:42:04.490Z,28.23
2022-10-17T03:44:35.125Z,30.92
2022-10-17T03:47:06.493Z,25.45
2022-10-17T03:49:37.438Z,21.15
2022-10-17T03:52:08.475Z,24.60
2022-10-17T03:54:39.141Z,23.75
2022-10-17T03:57:09.753Z,23.40
2022-10-17T03:59:41.392Z,24.00
2022-10-17T04:02:17.597Z,27.75
2022-10-17T04:04:48.198Z,25.98
2022-10-17T04:07:19.336Z,26.42
2022-10-17T04:09:51.743Z,30.42
2022-10-17T04:12:24.755Z,25.17
2022-10-17T04:14:56.174Z,27.10
2022-10-17T04:17:27.391Z,24.60
2022-10-17T04:19:57.770Z,23.38
2022-10-17T04:22:28.214Z,22.08
2022-10-17T04:24:59.852Z,23.50
2022-10-17T04:27:38.990Z,23.95
2022-10-17T04:30:10.800Z,26.10
2022-10-17T04:32:42.198Z,24.23
2022-10-17T04:35:17.455Z,23.83
2022-10-17T04:37:52.905Z,23.83
2022-10-17T04:40:24.627Z,24.00
2022-10-17T04:42:56.044Z,23.40
2022-10-17T04:45:33.681Z,24.55
2022-10-17T04:48:06.706Z,25.75
2022-10-17T04:50:37.595Z,28.83
2022-10-17T04:53:28.437Z,24.30
2022-10-17T04:55:59.101Z,21.60
2022-10-17T04:58:32.075Z,24.77
2022-10-17T05:01:08.982Z,23.30
2022-10-17T05:03:41.122Z,28.33
2022-10-17T05:06:21.896Z,26.75
2022-10-17T05:09:09.806Z,27.20
2022-10-17T05:11:40.273Z,23.80
2022-10-17T05:14:10.800Z,26.70
2022-10-17T05:16:41.966Z,24.67
2022-10-17T05:19:13.104Z,27.88
2022-10-17T05:21:48.495Z,23.58
2022-10-17T05:24:19.203Z,27.45
2022-10-17T05:26:53.530Z,22.63
2022-10-17T05:29:24.371Z,26.88
2022-10-17T05:32:04.043Z,27.20
2022-10-17T05:34:35.381Z,25.75
2022-10-17T05:37:06.150Z,24.20
2022-10-17T05:39:37.633Z,22.70
2022-10-17T05:42:10.364Z,25.50
2022-10-17T05:44:42.856Z,24.38
2022-10-17T05:47:13.320Z,24.17
2022-10-17T05:49:48.694Z,25.00
2022-10-17T05:52:30.575Z,21.38
2022-10-17T05:55:13.022Z,22.85
2022-10-17T05:57:43.301Z,24.55
2022-10-17T06:00:19.570Z,23.50
2022-10-17T06:02:57.817Z,27.60
2022-10-17T06:05:28.487Z,23.17
2022-10-17T06:08:01.931Z,27.10
2022-10-17T06:10:36.962Z,22.05
2022-10-17T06:13:07.416Z,26.65
2022-10-17T06:15:38.847Z,22.92
2022-10-17T06:18:11.782Z,22.15
2022-10-17T06:20:45.384Z,22.73
2022-10-17T06:23:20.096Z,25.83
2022-10-17T06:26:08.149Z,24.77
2022-10-17T06:28:39.449Z,25.33
2022-10-17T06:31:14.872Z,24.75
2022-10-17T06:33:45.541Z,28.00
2022-10-17T06:36:17.748Z,22.92
2022-10-17T06:38:49.176Z,23.05
2022-10-17T06:41:26.588Z,21.73
2022-10-17T06:43:57.897Z,23.48
2022-10-17T06:46:41.587Z,27.67
2022-10-17T06:49:13.734Z,24.85
2022-10-17T06:52:03.976Z,26.33
2022-10-17T06:54:54.379Z,23.23
2022-10-17T06:57:44.424Z,24.27
2022-10-17T07:00:34.611Z,23.75
2022-10-17T07:03:05.448Z,30.20
2022-10-17T07:05:36.286Z,26.08
2022-10-17T07:08:10.291Z,22.17
2022-10-17T07:10:44.875Z,23.38
2022-10-17T07:13:17.006Z,25.48
2022-10-17T07:15:48.934Z,23.17
2022-10-17T07:18:20.798Z,24.50
2022-10-17T07:20:57.901Z,24.75
2022-10-17T07:23:29.190Z,25.88
2022-10-17T07:26:04.221Z,23.30
2022-10-17T07:28:38.193Z,23.63
2022-10-17T07:31:23.855Z,22.08
2022-10-17T07:33:55.144Z,23.02
2022-10-17T07:36:26.947Z,24.23
2022-10-17T07:39:02.939Z,23.10
2022-10-17T07:41:41.112Z,23.25
2022-10-17T07:44:13.203Z,24.05
2022-10-17T07:46:47.670Z,26.75
2022-10-17T07:49:19.460Z,26.75
2022-10-17T07:51:51.807Z,24.58
2022-10-17T07:54:25.592Z,22.08
2022-10-17T07:56:56.071Z,24.02
2022-10-17T07:59:27.065Z,25.08
2022-10-17T08:02:02.181Z,32.92
2022-10-17T08:04:36.221Z,26.42
2022-10-17T08:07:21.799Z,28.02
2022-10-17T08:09:58.429Z,24.67
2022-10-17T08:12:35.898Z,25.88
2022-10-17T08:15:08.248Z,29.45
2022-10-17T08:17:41.406Z,22.30
2022-10-17T08:20:13.360Z,24.67
2022-10-17T08:22:45.541Z,23.27
2022-10-17T08:25:16.283Z,24.65
2022-10-17T08:27:47.174Z,24.27
2022-10-17T08:30:18.380Z,22.73
2022-10-17T08:32:51.991Z,23.10
2022-10-17T08:35:23.632Z,25.23
2022-10-17T08:37:55.297Z,25.70
2022-10-17T08:40:29.352Z,24.77
2022-10-17T08:43:41.584Z,24.90
2022-10-17T08:46:18.177Z,26.67
2022-10-17T08:48:51.299Z,23.40
2022-10-17T08:51:30.023Z,25.48
2022-10-17T08:54:10.489Z,28.42
2022-10-17T08:56:51.226Z,25.52
2022-10-17T08:59:30.389Z,23.45
2022-10-17T09:02:26.502Z,24.77
2022-10-17T09:05:26.699Z,29.33
2022-10-17T09:08:36.858Z,24.48
2022-10-17T09:11:33.769Z,22.60
2022-10-17T09:14:44.649Z,26.65
2022-10-17T09:17:39.150Z,25.08
2022-10-17T09:20:40.289Z,28.60
2022-10-17T09:23:23.387Z,43.17
2022-10-17T09:26:02.348Z,27.15
2022-10-17T09:28:38.231Z,33.17
2022-10-17T09:31:34.055Z,30.63
2022-10-17T09:34:05.509Z,28.20
2022-10-17T09:36:39.506Z,27.63
2022-10-17T09:39:22.393Z,25.50
2022-10-17T09:41:58.913Z,23.73
2022-10-17T09:44:41.509Z,24.38
2022-10-17T09:47:40.953Z,26.15
2022-10-17T09:50:36.161Z,29.02
2022-10-17T09:53:19.628Z,25.30
2022-10-17T09:55:53.559Z,25.95
2022-10-17T09:58:24.603Z,26.52
2022-10-17T10:00:54.661Z,26.73
2022-10-17T10:03:27.635Z,28.80
2022-10-17T10:06:19.480Z,34.53
2022-10-17T10:09:00.686Z,30.55
2022-10-17T10:11:54.910Z,29.88
2022-10-17T10:14:35.107Z,32.38
2022-10-17T10:17:09.413Z,30.63
2022-10-17T10:19:40.804Z,31.45
2022-10-17T10:22:19.427Z,30.48
2022-10-17T10:25:10.655Z,30.58
2022-10-17T10:27:45.646Z,30.85
2022-10-17T10:30:22.454Z,30.85
2022-10-17T10:32:53.392Z,48.58
2022-10-17T10:35:36.556Z,45.80
2022-10-17T10:38:17.573Z,46.85
2022-10-17T10:40:51.507Z,56.17
2022-10-17T10:43:47.538Z,47.67
2022-10-17T10:46:31.308Z,43.25
2022-10-17T10:49:05.371Z,44.80
2022-10-17T10:51:46.574Z,63.05
2022-10-17T10:57:21.626Z,61.58
2022-10-17T11:00:17.328Z,89.57
2022-10-17T11:03:20.718Z,103.13
2022-10-17T11:06:06.282Z,87.70
2022-10-17T11:09:04.484Z,69.97
2022-10-17T11:11:55.975Z,63.55
2022-10-17T11:15:05.550Z,59.42
2022-10-17T11:18:04.495Z,66.07
2022-10-17T11:20:59.786Z,88.45
2022-10-17T11:23:51.176Z,87.72
2022-10-17T11:26:29.635Z,70.13
2022-10-17T11:29:03.964Z,72.78
2022-10-17T11:31:39.443Z,87.25
2022-10-17T11:34:29.304Z,89.35
2022-10-17T11:37:04.576Z,84.72
2022-10-17T11:40:14.493Z,82.22
2022-10-17T11:42:56.814Z,88.38
2022-10-17T11:45:31.246Z,82.72
2022-10-17T11:48:09.694Z,80.18
2022-10-17T11:53:55.544Z,84.70
2022-10-17T11:56:51.681Z,117.65
2022-10-17T12:00:01.148Z,118.63
2022-10-17T12:03:08.938Z,186.23
2022-10-17T12:05:52.321Z,222.70
2022-10-17T12:09:01.903Z,269.83
2022-10-17T12:11:59.439Z,327.83
2022-10-17T12:14:49.555Z,359.10
2022-10-17T12:17:43.489Z,371.92
2022-10-17T12:20:36.112Z,332.67
2022-10-17T12:23:28.261Z,291.75
2022-10-17T12:26:06.694Z,231.90
2022-10-17T12:28:47.117Z,165.77
2022-10-17T12:31:33.388Z,118.45
2022-10-17T12:34:06.566Z,85.72
2022-10-17T12:36:41.140Z,73.38
2022-10-17T12:39:49.857Z,337.70
2022-10-17T12:42:49.174Z,95.63
2022-10-17T12:45:53.236Z,82.35
2022-10-17T12:49:02.978Z,76.78
2022-10-17T12:52:12.622Z,69.45
2022-10-17T12:55:13.774Z,65.95
2022-10-17T12:58:05.247Z,61.65
2022-10-17T13:01:11.703Z,56.85
2022-10-17T13:03:48.035Z,59.35
2022-10-17T13:06:31.149Z,56.88
2022-10-17T13:09:06.753Z,58.92
2022-10-17T13:11:39.923Z,66.30
2022-10-17T13:14:15.619Z,69.60
2022-10-17T13:16:59.334Z,60.17
2022-10-17T13:19:34.578Z,386.75
2022-10-17T13:22:07.298Z,97.43
2022-10-17T13:24:42.964Z,78.20
2022-10-17T13:27:33.904Z,68.03
2022-10-17T13:30:24.773Z,67.43
2022-10-17T13:32:57.028Z,62.85
2022-10-17T13:38:35.651Z,60.03
2022-10-17T13:41:35.951Z,64.85
2022-10-17T13:44:13.220Z,64.07
2022-10-17T13:46:44.715Z,63.30
2022-10-17T13:49:41.052Z,59.20
2022-10-17T13:52:23.509Z,72.65
2022-10-17T13:54:55.790Z,66.93
2022-10-17T13:57:32.410Z,74.55
2022-10-17T14:00:13.053Z,188.48
2022-10-17T14:02:44.233Z,288.08
2022-10-17T14:05:19.555Z,78.50
2022-10-17T14:08:11.990Z,69.88
2022-10-17T14:10:45.794Z,72.95
2022-10-17T14:13:31.809Z,71.80
2022-10-17T14:16:05.935Z,70.53
2022-10-17T14:18:38.819Z,71.40
2022-10-17T14:24:29.767Z,79.65
2022-10-17T14:27:02.082Z,69.63
2022-10-17T14:29:51.463Z,72.68
2022-10-17T14:32:23.122Z,76.10
2022-10-17T14:35:16.599Z,74.40
2022-10-17T14:37:52.282Z,72.20
2022-10-17T14:40:28.130Z,74.97
2022-10-17T14:43:00.989Z,75.72
2022-10-17T14:45:35.896Z,78.10
2022-10-17T14:48:16.683Z,74.82
2022-10-17T14:51:17.240Z,73.18
2022-10-17T14:54:20.097Z,77.95
2022-10-17T14:56:54.822Z,258.88
2022-10-17T14:59:53.843Z,125.70
2022-10-17T15:02:18.567Z,86.50
2022-10-17T15:04:49.197Z,86.60
2022-10-17T15:07:20.446Z,90.78
2022-10-17T15:09:52.980Z,100.85
2022-10-17T15:12:26.808Z,103.20
2022-10-17T15:14:57.347Z,99.88
2022-10-17T15:17:30.864Z,108.38
2022-10-17T15:20:02.057Z,109.63
2022-10-17T15:22:33.432Z,109.55
2022-10-17T15:25:03.995Z,110.78
2022-10-17T15:27:34.072Z,110.95
2022-10-17T15:30:04.724Z,115.05
2022-10-17T15:32:35.120Z,107.47
2022-10-17T15:35:05.654Z,110.15
2022-10-17T15:37:36.632Z,110.65
2022-10-17T15:40:08.063Z,115.03
2022-10-17T15:42:38.823Z,108.85
2022-10-17T15:45:10.404Z,105.57
2022-10-17T15:47:41.467Z,98.15
2022-10-17T15:50:19.022Z,96.18
2022-10-17T15:52:52.209Z,88.10
2022-10-17T15:55:22.703Z,103.63
2022-10-17T15:57:52.879Z,104.10
2022-10-17T16:00:26.358Z,101.53
2022-10-17T16:02:57.140Z,87.93
2022-10-17T16:05:30.333Z,89.25
2022-10-17T16:08:00.397Z,91.03
2022-10-17T16:10:31.804Z,81.78
2022-10-17T16:13:02.528Z,83.55
2022-10-17T16:15:32.955Z,91.55
2022-10-17T16:18:06.605Z,89.32
2022-10-17T16:20:39.621Z,85.03
2022-10-17T16:23:10.129Z,81.43
2022-10-17T16:25:43.656Z,79.97
2022-10-17T16:28:13.998Z,66.28
2022-10-17T16:30:47.605Z,75.47
2022-10-17T16:33:17.633Z,71.05
2022-10-17T16:35:49.009Z,70.03
2022-10-17T16:38:19.544Z,72.72
2022-10-17T16:40:49.867Z,74.05
2022-10-17T16:43:19.910Z,67.57
2022-10-17T16:45:50.344Z,70.32
2022-10-17T16:48:21.001Z,62.83
2022-10-17T16:50:51.367Z,64.72
2022-10-17T16:53:22.243Z,65.47
2022-10-17T16:56:09.960Z,71.03
2022-10-17T16:58:40.711Z,70.30
2022-10-17T17:01:15.834Z,64.30
2022-10-17T17:03:48.156Z,63.63
2022-10-17T17:06:23.290Z,65.28
2022-10-17T17:08:53.770Z,62.58
2022-10-17T17:11:29.121Z,62.35
2022-10-17T17:14:00.661Z,65.90
2022-10-17T17:16:32.714Z,59.10
2022-10-17T17:19:07.604Z,57.50
2022-10-17T17:21:38.318Z,62.65
2022-10-17T17:24:09.055Z,57.95
2022-10-17T17:26:40.599Z,56.55
2022-10-17T17:29:13.631Z,59.08
2022-10-17T17:31:43.692Z,55.88
2022-10-17T17:34:17.174Z,58.42
2022-10-17T17:36:49.002Z,56.75
2022-10-17T17:39:19.795Z,56.88
2022-10-17T17:41:49.902Z,55.13
2022-10-17T17:44:20.306Z,55.72
2022-10-17T17:46:51.096Z,54.92
2022-10-17T17:49:21.524Z,58.97
2022-10-17T17:51:51.951Z,55.47
2022-10-17T17:54:22.341Z,54.53
2022-10-17T17:56:52.830Z,53.15
2022-10-17T17:59:23.211Z,52.45
2022-10-17T18:01:53.707Z,58.05
2022-10-17T18:04:24.373Z,63.45
2022-10-17T18:06:54.464Z,63.22
2022-10-17T18:09:25.431Z,65.78
2022-10-17T18:11:55.474Z,61.05
2022-10-17T18:14:25.565Z,56.47
2022-10-17T18:16:56.038Z,58.03
2022-10-17T18:21:58.411Z,57.75
2022-10-17T18:24:28.973Z,61.00
2022-10-17T18:27:01.421Z,58.47
2022-10-17T18:29:32.665Z,57.38
2022-10-17T18:32:03.317Z,60.67
2022-10-17T18:34:34.089Z,60.08
2022-10-17T18:37:04.871Z,59.47
2022-10-17T18:39:35.881Z,62.33
2022-10-17T18:42:06.037Z,58.50
2022-10-17T18:44:36.137Z,58.97
2022-10-17T18:47:06.181Z,57.28
2022-10-17T18:49:37.250Z,58.25
2022-10-17T18:52:07.316Z,59.38
2022-10-17T18:54:37.560Z,56.50
2022-10-17T18:57:07.988Z,50.50
2022-10-17T18:59:39.401Z,56.58
2022-10-17T19:02:11.754Z,53.63
2022-10-17T19:04:42.231Z,52.92
2022-10-17T19:07:12.757Z,57.55
2022-10-17T19:09:43.036Z,52.85
2022-10-17T19:12:13.780Z,50.30
2022-10-17T19:14:44.147Z,48.85
2022-10-17T19:17:14.864Z,52.72
2022-10-17T19:19:45.504Z,54.55
2022-10-17T19:22:16.335Z,58.92
2022-10-17T19:24:46.995Z,53.20
2022-10-17T19:27:17.435Z,56.50
2022-10-17T19:29:47.709Z,51.42
2022-10-17T19:32:20.671Z,56.25
2022-10-17T19:34:53.139Z,62.70
2022-10-17T19:37:23.688Z,52.60
2022-10-17T19:39:54.064Z,51.13
2022-10-17T19:42:24.832Z,54.28
2022-10-17T19:44:55.282Z,51.80
2022-10-17T19:47:26.184Z,55.15
2022-10-17T19:49:56.589Z,54.88
2022-10-17T19:52:27.456Z,64.20
2022-10-17T19:54:58.432Z,58.80
2022-10-17T19:57:28.819Z,60.55
2022-10-17T19:59:59.271Z,60.55
2022-10-17T20:02:30.249Z,55.97
2022-10-17T20:05:17.707Z,58.33
2022-10-17T20:07:49.105Z,61.70
2022-10-17T20:10:20.472Z,56.00
2022-10-17T20:12:51.040Z,59.97
2022-10-17T20:15:22.248Z,56.65
2022-10-17T20:17:52.622Z,61.22
2022-10-17T20:20:23.163Z,61.90
2022-10-17T20:22:53.642Z,60.00
2022-10-17T20:25:24.599Z,59.70
2022-10-17T20:27:55.137Z,61.53
2022-10-17T20:30:25.422Z,61.97
2022-10-17T20:32:56.457Z,60.55
2022-10-17T20:35:26.505Z,64.10
2022-10-17T20:37:57.003Z,60.47
2022-10-17T20:40:35.177Z,62.45
2022-10-17T20:43:10.761Z,59.50
2022-10-17T20:45:51.883Z,63.80
2022-10-17T20:48:22.227Z,66.05
2022-10-17T20:50:53.109Z,70.45
2022-10-17T20:53:36.683Z,61.38
2022-10-17T20:56:13.782Z,60.88
2022-10-17T20:58:44.041Z,59.38
2022-10-17T21:01:14.438Z,53.97
2022-10-17T21:03:46.659Z,62.88
2022-10-17T21:06:18.226Z,57.47
2022-10-17T21:08:49.907Z,58.53
2022-10-17T21:11:23.900Z,64.05
2022-10-17T21:13:59.881Z,70.63
2022-10-17T21:16:32.122Z,68.47
2022-10-17T21:19:03.090Z,61.78
2022-10-17T21:21:36.022Z,62.42
2022-10-17T21:24:10.612Z,64.70
2022-10-17T21:26:41.649Z,63.20
2022-10-17T21:29:14.256Z,63.58
2022-10-17T21:31:46.375Z,68.00
2022-10-17T21:34:29.299Z,68.15
2022-10-17T21:36:59.952Z,61.22
2022-10-17T21:39:31.072Z,56.40
2022-10-17T21:42:01.448Z,62.50
2022-10-17T21:44:32.140Z,60.60
2022-10-17T21:47:02.286Z,62.72
2022-10-17T21:49:32.643Z,63.42
2022-10-17T21:52:05.570Z,66.47
2022-10-17T21:54:35.950Z,67.57
2022-10-17T21:57:06.211Z,61.63
2022-10-17T21:59:37.000Z,69.75
2022-10-17T22:02:07.170Z,64.63
2022-10-17T22:04:37.179Z,67.38
2022-10-17T22:07:07.629Z,64.95
2022-10-17T22:09:38.011Z,66.45
2022-10-17T22:12:08.403Z,66.82
2022-10-17T22:14:38.520Z,68.20
2022-10-17T22:17:08.894Z,70.57
2022-10-17T22:19:39.303Z,70.20
2022-10-17T22:22:09.856Z,67.40
2022-10-17T22:24:40.253Z,71.75
2022-10-17T22:27:11.874Z,66.28
2022-10-17T22:29:42.523Z,63.85
2022-10-17T22:32:12.531Z,68.05
2022-10-17T22:34:42.586Z,71.95
2022-10-17T22:37:12.619Z,71.15
2022-10-17T22:39:42.643Z,65.25
2022-10-17T22:42:12.749Z,65.78
2022-10-17T22:44:43.262Z,65.63
2022-10-17T22:47:13.323Z,60.75
2022-10-17T22:49:43.719Z,66.00
2022-10-17T22:52:14.122Z,68.85
2022-10-17T22:54:44.130Z,64.35
2022-10-17T22:57:15.370Z,61.20
2022-10-17T22:59:46.262Z,62.53
2022-10-17T23:02:16.661Z,58.92
2022-10-17T23:04:47.410Z,65.07
2022-10-17T23:07:17.771Z,62.50
2022-10-17T23:09:47.615Z,72.65
2022-10-17T23:12:17.707Z,109.68
2022-10-17T23:14:48.069Z,74.25
2022-10-17T23:17:18.991Z,79.60
2022-10-17T23:19:51.843Z,70.10
2022-10-17T23:22:24.376Z,70.20
2022-10-17T23:24:54.489Z,71.82
2022-10-17T23:27:24.531Z,68.50
2022-10-17T23:29:55.030Z,74.28
2022-10-17T23:32:25.647Z,73.25
2022-10-17T23:34:56.332Z,59.50
2022-10-17T23:37:27.185Z,55.90
2022-10-17T23:39:57.771Z,62.55
2022-10-17T23:42:28.854Z,92.53
2022-10-17T23:44:59.232Z,78.65
2022-10-17T23:47:29.531Z,77.20
2022-10-17T23:50:00.330Z,69.63
2022-10-17T23:52:31.183Z,70.15
2022-10-17T23:55:02.450Z,68.35
2022-10-17T23:57:33.463Z,72.88
